sim
Sign-in with your pilot id or email,
or register
Callsign
Passwort

Schedule Details

Flight Number: DLH2059 (1)
Departure: Hamburg Airport (EDDH) at 07:45
Arrival: Munich Airport (EDDM) at 09:00
Route: Lufthansa Passenger Schedule. Enter filed route here before submitting Pirep.

Weather Information
Getting current METAR information for EDDH 190520Z 05003KT CAVOK 06/05 Q1024 NOSIG
Getting current METAR information for EDDM 190520Z 06003KT CAVOK 04/04 Q1020 NOSIG

Schedule Frequency

Route Map